createdAt,value
2019-02-28T00:02:27.606Z,100193.05
2019-02-28T00:06:31.773Z,100189.35
2019-02-28T00:10:35.986Z,100188.53
2019-02-28T00:14:40.334Z,100187.86
2019-02-28T00:18:49.524Z,100180.19
2019-02-28T00:22:50.463Z,100179.13
2019-02-28T00:26:54.696Z,100175.66
2019-02-28T00:30:58.916Z,100174.79
2019-02-28T00:35:03.437Z,100171.96
2019-02-28T00:39:08.026Z,100171.96
2019-02-28T00:43:12.248Z,100168.05
2019-02-28T00:47:17.157Z,100166.35
2019-02-28T00:51:21.540Z,100150.17
2019-02-28T00:55:26.187Z,100151.19
2019-02-28T00:59:31.727Z,100150.62
2019-02-28T01:03:36.305Z,100139.92
2019-02-28T01:07:40.518Z,100123.13
2019-02-28T01:11:45.552Z,100120.44
2019-02-28T01:15:49.889Z,100115.12
2019-02-28T01:19:54.086Z,100111.78
2019-02-28T01:24:00.558Z,100103.48
2019-02-28T01:28:05.313Z,100094.03
2019-02-28T01:32:09.538Z,100081.18
2019-02-28T01:36:15.550Z,100078.95
2019-02-28T01:40:20.048Z,100078.03
2019-02-28T01:44:24.627Z,100073.77
2019-02-28T01:48:28.854Z,100063.46
2019-02-28T01:52:33.069Z,100071.27
2019-02-28T01:56:37.912Z,100062.59
2019-02-28T02:00:42.207Z,100053.11
2019-02-28T02:04:46.700Z,100048.52
2019-02-28T02:08:50.947Z,100036.58
2019-02-28T02:12:55.114Z,100030.75
2019-02-28T02:17:01.088Z,100027.70
2019-02-28T02:21:05.291Z,100020.45
2019-02-28T02:25:09.743Z,100017.17
2019-02-28T02:29:14.064Z,100007.38
2019-02-28T02:33:18.993Z,100001.83
2019-02-28T02:37:26.441Z,99997.33
2019-02-28T02:41:33.267Z,99994.48
2019-02-28T02:45:41.681Z,99981.65
2019-02-28T02:49:40.954Z,99977.58
2019-02-28T02:53:45.175Z,99967.86
2019-02-28T02:57:51.661Z,99959.56
2019-02-28T03:01:57.110Z,99949.52
2019-02-28T03:06:01.466Z,99944.31
2019-02-28T03:10:06.451Z,99933.02
2019-02-28T03:14:10.635Z,99935.20
2019-02-28T03:18:14.849Z,99930.86
2019-02-28T03:22:19.411Z,99924.78
2019-02-28T03:26:23.664Z,99927.13
2019-02-28T03:30:32.366Z,99920.00
2019-02-28T03:34:33.838Z,99918.52
2019-02-28T03:38:38.063Z,99910.70
2019-02-28T03:42:42.294Z,99911.48
2019-02-28T03:46:47.813Z,99902.47
2019-02-28T03:50:55.299Z,99896.13
2019-02-28T03:55:03.255Z,99892.56
2019-02-28T03:59:04.063Z,99890.48
2019-02-28T04:03:08.414Z,99875.84
2019-02-28T04:07:16.020Z,99863.70
2019-02-28T04:11:18.553Z,99872.97
2019-02-28T04:15:22.770Z,99855.77
2019-02-28T04:19:27.417Z,99855.44
2019-02-28T04:23:35.953Z,99856.24
2019-02-28T04:27:40.157Z,99845.06
2019-02-28T04:31:43.631Z,99839.83
2019-02-28T04:35:47.848Z,99833.08
2019-02-28T04:39:53.307Z,99823.37
2019-02-28T04:43:58.027Z,99808.36
2019-02-28T04:48:02.205Z,99812.67
2019-02-28T04:52:06.429Z,99804.11
2019-02-28T04:56:11.423Z,99803.74
2019-02-28T05:00:16.533Z,99785.75
2019-02-28T05:04:20.720Z,99787.04
2019-02-28T05:08:24.923Z,99779.19
2019-02-28T05:12:29.133Z,99775.20
2019-02-28T05:16:33.324Z,99782.52
2019-02-28T05:20:37.546Z,99781.70
2019-02-28T05:24:42.591Z,99778.13
2019-02-28T05:28:47.888Z,99763.52
2019-02-28T05:32:52.123Z,99757.50
2019-02-28T05:36:56.358Z,99757.19
2019-02-28T05:41:00.653Z,99766.09
2019-02-28T05:45:05.371Z,99756.20
2019-02-28T05:49:09.854Z,99759.38
2019-02-28T05:53:14.176Z,99767.02
2019-02-28T05:57:18.404Z,99767.16
2019-02-28T06:01:22.758Z,99756.69
2019-02-28T06:05:27.295Z,99758.48
2019-02-28T06:09:31.490Z,99760.30
2019-02-28T06:13:37.097Z,99754.64
2019-02-28T06:17:41.516Z,99747.63
2019-02-28T06:21:45.824Z,99748.51
2019-02-28T06:25:50.094Z,99744.16
2019-02-28T06:29:54.280Z,99740.70
2019-02-28T06:33:58.527Z,99734.16
2019-02-28T06:38:03.104Z,99731.99
2019-02-28T06:42:07.337Z,99721.03
2019-02-28T06:46:11.589Z,99713.14
2019-02-28T06:50:16.020Z,99714.46
2019-02-28T06:54:19.245Z,99717.97
2019-02-28T06:58:23.485Z,99712.70
2019-02-28T07:02:28.514Z,99708.74
2019-02-28T07:06:35.951Z,99704.77
2019-02-28T07:10:41.488Z,99695.52
2019-02-28T07:14:49.354Z,99692.02
2019-02-28T07:18:53.742Z,99690.25
2019-02-28T07:22:57.801Z,99683.66
2019-02-28T07:27:04.178Z,99669.14
2019-02-28T07:31:07.974Z,99667.33
2019-02-28T07:35:12.198Z,99661.13
2019-02-28T07:39:16.404Z,99664.55
2019-02-28T07:43:20.627Z,99664.55
2019-02-28T07:47:25.503Z,99655.64
2019-02-28T07:51:29.829Z,99623.77
2019-02-28T07:55:34.072Z,99623.77
2019-02-28T07:59:42.383Z,99629.84
2019-02-28T08:03:44.951Z,99627.96
2019-02-28T08:07:52.148Z,99639.80
2019-02-28T08:11:56.759Z,99624.74
2019-02-28T08:16:01.081Z,99614.17
2019-02-28T08:20:06.413Z,99612.76
2019-02-28T08:24:10.648Z,99603.91
2019-02-28T08:28:14.902Z,99597.21
2019-02-28T08:32:19.130Z,99590.95
2019-02-28T08:36:23.373Z,99581.15
2019-02-28T08:40:27.710Z,99593.84
2019-02-28T08:44:31.933Z,99580.05
2019-02-28T08:48:36.109Z,99578.17
2019-02-28T08:52:42.133Z,99562.64
2019-02-28T08:56:49.671Z,99558.04
2019-02-28T09:00:52.650Z,99559.66
2019-02-28T09:04:56.825Z,99557.32
2019-02-28T09:09:01.201Z,99547.48
2019-02-28T09:13:08.623Z,99545.13
2019-02-28T09:17:11.420Z,99548.09
2019-02-28T09:21:18.280Z,99538.64
2019-02-28T09:25:22.771Z,99535.78
2019-02-28T09:29:27.112Z,99532.88
2019-02-28T09:33:31.632Z,99523.33
2019-02-28T09:37:35.865Z,99504.94
2019-02-28T09:41:41.239Z,99498.41
2019-02-28T09:45:45.529Z,99482.73
2019-02-28T09:49:49.742Z,99491.72
2019-02-28T09:53:54.311Z,99484.97
2019-02-28T09:57:58.529Z,99494.25
2019-02-28T10:02:08.093Z,99473.86
2019-02-28T10:06:08.665Z,99473.70
2019-02-28T10:10:17.523Z,99465.13
2019-02-28T10:14:21.195Z,99466.38
2019-02-28T10:18:25.852Z,99461.61
2019-02-28T10:22:30.485Z,99461.95
2019-02-28T10:26:34.704Z,99461.48
2019-02-28T10:30:38.917Z,99475.35
2019-02-28T10:34:43.137Z,99465.39
2019-02-28T10:38:47.362Z,99469.99
2019-02-28T10:42:51.645Z,99458.80
2019-02-28T10:46:55.868Z,99450.47
2019-02-28T10:51:00.087Z,99440.05
2019-02-28T10:55:05.018Z,99435.13
2019-02-28T10:59:09.576Z,99416.77
2019-02-28T11:03:13.872Z,99417.90
2019-02-28T11:07:18.092Z,99414.18
2019-02-28T11:11:22.351Z,99402.45
2019-02-28T11:15:27.083Z,99399.59
2019-02-28T11:19:31.568Z,99400.98
2019-02-28T11:23:35.792Z,99398.64
2019-02-28T11:27:41.861Z,99400.62
2019-02-28T11:31:46.100Z,99383.98
2019-02-28T11:35:50.531Z,99382.34
2019-02-28T11:39:54.761Z,99374.96
2019-02-28T11:43:58.986Z,99366.81
2019-02-28T11:48:04.349Z,99373.80
2019-02-28T11:52:08.735Z,99372.98
2019-02-28T11:56:12.945Z,99362.12
2019-02-28T12:00:22.941Z,99358.06
2019-02-28T12:04:27.144Z,99345.85
2019-02-28T12:08:31.377Z,99345.24
2019-02-28T12:12:35.556Z,99330.84
2019-02-28T12:16:39.873Z,99321.81
2019-02-28T12:20:44.062Z,99313.78
2019-02-28T12:24:48.568Z,99316.20
2019-02-28T12:28:54.369Z,99308.50
2019-02-28T12:32:58.610Z,99300.80
2019-02-28T12:37:02.809Z,99292.77
2019-02-28T12:41:07.052Z,99296.09
2019-02-28T12:45:14.686Z,99286.61
2019-02-28T12:49:21.835Z,99279.06
2019-02-28T12:53:25.492Z,99277.39
2019-02-28T12:57:29.843Z,99267.58
2019-02-28T13:01:34.378Z,99261.73
2019-02-28T13:05:38.640Z,99267.34
2019-02-28T13:09:43.283Z,99272.23
2019-02-28T13:13:47.504Z,99257.20
2019-02-28T13:17:51.942Z,99261.25
2019-02-28T13:21:56.195Z,99255.17
2019-02-28T13:26:00.773Z,99246.79
2019-02-28T13:30:10.542Z,99242.80
2019-02-28T13:34:12.438Z,99241.36
2019-02-28T13:38:19.082Z,99230.00
2019-02-28T13:42:22.549Z,99237.58
2019-02-28T13:46:34.258Z,99228.77
2019-02-28T13:50:38.676Z,99221.69
2019-02-28T13:54:43.345Z,99225.16
2019-02-28T13:58:47.600Z,99216.73
2019-02-28T14:02:53.510Z,99218.06
2019-02-28T14:06:57.765Z,99212.49
2019-02-28T14:11:01.973Z,99218.19
2019-02-28T14:15:07.367Z,99221.23
2019-02-28T14:19:11.690Z,99233.17
2019-02-28T14:23:20.333Z,99221.66
2019-02-28T14:27:25.233Z,99218.05
2019-02-28T14:31:29.574Z,99210.53
2019-02-28T14:35:36.578Z,99199.34
2019-02-28T14:39:42.691Z,99200.09
2019-02-28T14:43:46.311Z,99203.18
2019-02-28T14:47:56.782Z,99227.69
2019-02-28T14:52:00.342Z,99218.94
2019-02-28T14:56:06.939Z,99217.77
2019-02-28T15:00:13.423Z,99209.83
2019-02-28T15:04:17.659Z,99192.23
2019-02-28T15:08:21.860Z,99211.98
2019-02-28T15:12:26.083Z,99204.73
2019-02-28T15:16:30.612Z,99215.53
2019-02-28T15:20:35.015Z,99213.92
2019-02-28T15:24:40.538Z,99210.89
2019-02-28T15:28:48.550Z,99215.51
2019-02-28T15:32:54.384Z,99189.93
2019-02-28T15:36:59.184Z,99206.53
2019-02-28T15:41:03.789Z,99196.55
2019-02-28T15:45:08.747Z,99195.38
2019-02-28T15:49:12.978Z,99214.15
2019-02-28T15:53:17.204Z,99203.75
2019-02-28T15:57:21.430Z,99203.88
2019-02-28T16:01:28.633Z,99216.05
2019-02-28T16:05:31.547Z,99215.34
2019-02-28T16:09:35.779Z,99215.95
2019-02-28T16:13:40.348Z,99228.44
2019-02-28T16:17:44.878Z,99227.81
2019-02-28T16:21:49.218Z,99240.44
2019-02-28T16:25:53.440Z,99227.27
2019-02-28T16:29:57.652Z,99225.26
2019-02-28T16:34:08.361Z,99229.42
2019-02-28T16:38:10.111Z,99241.05
2019-02-28T16:42:14.885Z,99246.54
2019-02-28T16:46:19.107Z,99256.91
2019-02-28T16:50:23.314Z,99254.34
2019-02-28T16:58:29.836Z,99274.09
2019-02-28T17:02:34.228Z,99287.08
2019-02-28T17:06:38.497Z,99287.03
2019-02-28T17:10:43.387Z,99299.55
2019-02-28T17:14:49.208Z,99291.63
2019-02-28T17:18:56.665Z,99303.58
2019-02-28T17:23:01.375Z,99305.46
2019-02-28T17:27:13.827Z,99310.89
2019-02-28T17:31:44.629Z,99306.56
2019-02-28T17:35:47.959Z,99314.06
2019-02-28T17:39:52.219Z,99311.02
2019-02-28T17:44:37.496Z,99317.73
2019-02-28T17:49:15.037Z,99303.67
2019-02-28T17:53:50.864Z,99305.86
2019-02-28T17:58:24.803Z,99300.66
2019-02-28T18:03:12.993Z,99295.98
2019-02-28T18:07:34.318Z,99303.59
2019-02-28T18:11:49.938Z,99302.77
2019-02-28T18:16:50.301Z,99309.48
2019-02-28T18:21:44.995Z,99321.94
2019-02-28T18:26:38.570Z,99315.87
2019-02-28T18:31:07.994Z,99316.03
2019-02-28T18:35:12.266Z,99319.66
2019-02-28T18:39:16.503Z,99319.27
2019-02-28T18:43:20.670Z,99312.66
2019-02-28T18:47:24.910Z,99317.66
2019-02-28T18:51:29.132Z,99318.19
2019-02-28T18:55:35.166Z,99323.58
2019-02-28T18:59:39.845Z,99324.58
2019-02-28T19:03:44.091Z,99329.95
2019-02-28T19:07:48.383Z,99330.99
2019-02-28T19:11:52.826Z,99341.25
2019-02-28T19:15:57.029Z,99353.66
2019-02-28T19:20:01.670Z,99359.47
2019-02-28T19:24:05.932Z,99363.02
2019-02-28T19:28:10.141Z,99376.34
2019-02-28T19:32:14.333Z,99373.36
2019-02-28T19:36:18.525Z,99383.58
2019-02-28T19:40:22.747Z,99384.97
2019-02-28T19:44:26.986Z,99387.20
2019-02-28T19:48:32.815Z,99388.12
2019-02-28T19:52:37.019Z,99381.48
2019-02-28T19:56:41.250Z,99379.73
2019-02-28T20:00:45.573Z,99385.13
2019-02-28T20:04:49.800Z,99387.45
2019-02-28T20:08:54.043Z,99390.27
2019-02-28T20:12:58.305Z,99399.11
2019-02-28T20:17:02.489Z,99401.83
2019-02-28T20:21:07.102Z,99402.79
2019-02-28T20:25:12.609Z,99398.91
2019-02-28T20:29:16.843Z,99403.31
2019-02-28T20:33:21.089Z,99407.35
2019-02-28T20:37:25.320Z,99416.26
2019-02-28T20:41:29.571Z,99420.73
2019-02-28T20:45:33.751Z,99419.06
2019-02-28T20:49:37.993Z,99412.09
2019-02-28T20:53:42.214Z,99413.97
2019-02-28T20:57:46.529Z,99410.11
2019-02-28T21:01:50.722Z,99413.27
2019-02-28T21:05:54.940Z,99418.66
2019-02-28T21:09:59.163Z,99414.28
2019-02-28T21:14:03.629Z,99410.36
2019-02-28T21:18:07.860Z,99414.86
2019-02-28T21:22:12.031Z,99414.39
2019-02-28T21:26:16.254Z,99418.86
2019-02-28T21:30:21.735Z,99409.58
2019-02-28T21:34:25.993Z,99415.42
2019-02-28T21:38:30.334Z,99410.17
2019-02-28T21:42:34.593Z,99408.99
2019-02-28T21:46:38.887Z,99408.61
2019-02-28T21:50:43.088Z,99403.85
2019-02-28T21:54:47.308Z,99407.83
2019-02-28T21:58:51.832Z,99402.16
2019-02-28T22:02:56.054Z,99405.66
2019-02-28T22:07:00.225Z,99413.15
2019-02-28T22:11:04.439Z,99412.31
2019-02-28T22:15:12.499Z,99416.80
2019-02-28T22:19:16.693Z,99406.69
2019-02-28T22:23:20.877Z,99402.77
2019-02-28T22:27:25.093Z,99406.77
2019-02-28T22:31:45.892Z,99408.11
2019-02-28T22:35:52.887Z,99412.17
2019-02-28T22:39:57.485Z,99409.92
2019-02-28T22:44:01.742Z,99412.09
2019-02-28T22:48:05.978Z,99401.49
2019-02-28T22:52:10.161Z,99405.52
2019-02-28T22:56:14.375Z,99410.77
2019-02-28T23:00:46.740Z,99421.41
2019-02-28T23:04:51.014Z,99425.00
2019-02-28T23:08:55.199Z,99412.73
2019-02-28T23:13:00.046Z,99411.88
2019-02-28T23:17:04.508Z,99413.25
2019-02-28T23:21:08.770Z,99411.92
2019-02-28T23:25:13.291Z,99411.97
2019-02-28T23:29:19.844Z,99416.87
2019-02-28T23:33:24.045Z,99426.18
2019-02-28T23:37:28.373Z,99415.56
2019-02-28T23:41:32.590Z,99413.85
2019-02-28T23:45:36.814Z,99413.87
2019-02-28T23:49:41.043Z,99424.03
2019-02-28T23:53:45.273Z,99421.36
2019-02-28T23:57:49.459Z,99427.55
